sensor_id;sensor_type;location;lat;lon;timestamp;temperature;humidity
47805;DHT22;33568;45.286;9.900;2023-07-20T00:00:10;29.70;82.50
47805;DHT22;33568;45.286;9.900;2023-07-20T00:02:40;29.70;82.60
47805;DHT22;33568;45.286;9.900;2023-07-20T00:05:06;29.70;83.30
47805;DHT22;33568;45.286;9.900;2023-07-20T00:07:33;29.80;82.70
47805;DHT22;33568;45.286;9.900;2023-07-20T00:10:00;29.90;82.60
47805;DHT22;33568;45.286;9.900;2023-07-20T00:12:26;30.10;82.40
47805;DHT22;33568;45.286;9.900;2023-07-20T00:14:53;30.10;82.80
47805;DHT22;33568;45.286;9.900;2023-07-20T00:17:19;30.10;83.00
47805;DHT22;33568;45.286;9.900;2023-07-20T00:19:46;30.00;82.90
47805;DHT22;33568;45.286;9.900;2023-07-20T00:22:13;29.90;82.70
47805;DHT22;33568;45.286;9.900;2023-07-20T00:24:40;30.00;82.70
47805;DHT22;33568;45.286;9.900;2023-07-20T00:27:06;30.20;82.60
47805;DHT22;33568;45.286;9.900;2023-07-20T00:29:33;30.20;82.50
47805;DHT22;33568;45.286;9.900;2023-07-20T00:31:59;30.30;82.50
47805;DHT22;33568;45.286;9.900;2023-07-20T00:34:25;30.20;82.70
47805;DHT22;33568;45.286;9.900;2023-07-20T00:36:54;30.20;82.60
47805;DHT22;33568;45.286;9.900;2023-07-20T00:39:20;30.10;83.10
47805;DHT22;33568;45.286;9.900;2023-07-20T00:41:47;30.20;83.50
47805;DHT22;33568;45.286;9.900;2023-07-20T00:44:13;30.20;83.20
47805;DHT22;33568;45.286;9.900;2023-07-20T00:46:40;30.30;83.30
47805;DHT22;33568;45.286;9.900;2023-07-20T00:49:08;30.30;83.40
47805;DHT22;33568;45.286;9.900;2023-07-20T00:51:34;30.30;83.30
47805;DHT22;33568;45.286;9.900;2023-07-20T00:54:02;30.30;83.00
47805;DHT22;33568;45.286;9.900;2023-07-20T00:56:29;30.30;82.90
47805;DHT22;33568;45.286;9.900;2023-07-20T00:58:56;30.10;83.40
47805;DHT22;33568;45.286;9.900;2023-07-20T01:01:22;30.10;84.10
47805;DHT22;33568;45.286;9.900;2023-07-20T01:03:49;30.00;83.70
47805;DHT22;33568;45.286;9.900;2023-07-20T01:06:30;29.80;83.60
47805;DHT22;33568;45.286;9.900;2023-07-20T01:12:07;29.70;83.90
47805;DHT22;33568;45.286;9.900;2023-07-20T01:14:34;29.70;84.30
47805;DHT22;33568;45.286;9.900;2023-07-20T01:17:03;29.80;84.70
47805;DHT22;33568;45.286;9.900;2023-07-20T01:19:30;29.80;84.40
47805;DHT22;33568;45.286;9.900;2023-07-20T01:22:07;29.90;84.90
47805;DHT22;33568;45.286;9.900;2023-07-20T01:32:54;29.40;85.50
47805;DHT22;33568;45.286;9.900;2023-07-20T01:35:28;29.40;86.00
47805;DHT22;33568;45.286;9.900;2023-07-20T01:37:55;29.40;86.20
47805;DHT22;33568;45.286;9.900;2023-07-20T01:40:25;29.50;86.20
47805;DHT22;33568;45.286;9.900;2023-07-20T01:42:53;29.50;85.20
47805;DHT22;33568;45.286;9.900;2023-07-20T01:45:19;29.60;85.10
47805;DHT22;33568;45.286;9.900;2023-07-20T01:47:46;29.60;85.50
47805;DHT22;33568;45.286;9.900;2023-07-20T01:50:13;29.50;85.70
47805;DHT22;33568;45.286;9.900;2023-07-20T01:52:39;29.40;86.00
47805;DHT22;33568;45.286;9.900;2023-07-20T01:55:06;29.40;86.30
47805;DHT22;33568;45.286;9.900;2023-07-20T01:57:33;29.40;86.00
47805;DHT22;33568;45.286;9.900;2023-07-20T01:59:59;29.30;85.80
47805;DHT22;33568;45.286;9.900;2023-07-20T02:02:27;29.30;86.10
47805;DHT22;33568;45.286;9.900;2023-07-20T02:04:54;29.20;86.70
47805;DHT22;33568;45.286;9.900;2023-07-20T02:07:21;29.10;87.00
47805;DHT22;33568;45.286;9.900;2023-07-20T02:09:47;29.10;87.20
47805;DHT22;33568;45.286;9.900;2023-07-20T02:12:14;29.00;87.40
47805;DHT22;33568;45.286;9.900;2023-07-20T02:14:40;29.00;87.70
47805;DHT22;33568;45.286;9.900;2023-07-20T02:17:07;29.00;87.40
47805;DHT22;33568;45.286;9.900;2023-07-20T02:19:37;29.00;87.50
47805;DHT22;33568;45.286;9.900;2023-07-20T02:22:04;29.00;87.60
47805;DHT22;33568;45.286;9.900;2023-07-20T02:24:33;29.00;87.30
47805;DHT22;33568;45.286;9.900;2023-07-20T02:27:00;29.00;87.60
47805;DHT22;33568;45.286;9.900;2023-07-20T02:29:27;29.00;88.20
47805;DHT22;33568;45.286;9.900;2023-07-20T02:31:54;29.00;88.40
47805;DHT22;33568;45.286;9.900;2023-07-20T02:34:20;29.00;88.20
47805;DHT22;33568;45.286;9.900;2023-07-20T02:36:47;29.00;88.40
47805;DHT22;33568;45.286;9.900;2023-07-20T02:39:14;29.00;88.30
47805;DHT22;33568;45.286;9.900;2023-07-20T02:41:41;28.90;88.30
47805;DHT22;33568;45.286;9.900;2023-07-20T02:44:07;28.90;88.70
47805;DHT22;33568;45.286;9.900;2023-07-20T02:46:34;28.80;89.10
47805;DHT22;33568;45.286;9.900;2023-07-20T02:49:01;28.90;88.90
47805;DHT22;33568;45.286;9.900;2023-07-20T02:51:28;29.00;88.70
47805;DHT22;33568;45.286;9.900;2023-07-20T02:53:54;28.90;88.40
47805;DHT22;33568;45.286;9.900;2023-07-20T02:56:21;28.90;88.30
47805;DHT22;33568;45.286;9.900;2023-07-20T02:58:49;28.80;88.20
47805;DHT22;33568;45.286;9.900;2023-07-20T03:01:15;28.80;88.20
47805;DHT22;33568;45.286;9.900;2023-07-20T03:03:42;28.80;88.30
47805;DHT22;33568;45.286;9.900;2023-07-20T03:06:16;28.70;88.70
47805;DHT22;33568;45.286;9.900;2023-07-20T03:08:43;28.60;88.90
47805;DHT22;33568;45.286;9.900;2023-07-20T03:11:11;28.50;89.60
47805;DHT22;33568;45.286;9.900;2023-07-20T03:13:39;28.50;90.00
47805;DHT22;33568;45.286;9.900;2023-07-20T03:16:06;28.60;90.00
47805;DHT22;33568;45.286;9.900;2023-07-20T03:18:38;28.50;90.00
47805;DHT22;33568;45.286;9.900;2023-07-20T03:21:06;28.50;90.10
47805;DHT22;33568;45.286;9.900;2023-07-20T03:23:33;28.40;90.30
47805;DHT22;33568;45.286;9.900;2023-07-20T03:26:03;28.40;90.40
47805;DHT22;33568;45.286;9.900;2023-07-20T03:28:31;28.30;90.50
47805;DHT22;33568;45.286;9.900;2023-07-20T03:30:58;28.40;90.60
47805;DHT22;33568;45.286;9.900;2023-07-20T03:33:28;28.40;90.50
47805;DHT22;33568;45.286;9.900;2023-07-20T03:35:57;28.50;90.40
47805;DHT22;33568;45.286;9.900;2023-07-20T03:38:25;28.50;90.40
47805;DHT22;33568;45.286;9.900;2023-07-20T03:40:59;28.50;90.40
47805;DHT22;33568;45.286;9.900;2023-07-20T03:43:27;28.60;90.20
47805;DHT22;33568;45.286;9.900;2023-07-20T03:45:55;28.60;90.30
47805;DHT22;33568;45.286;9.900;2023-07-20T03:48:23;28.60;90.10
47805;DHT22;33568;45.286;9.900;2023-07-20T03:50:52;28.50;89.20
47805;DHT22;33568;45.286;9.900;2023-07-20T03:53:19;28.30;88.90
47805;DHT22;33568;45.286;9.900;2023-07-20T03:55:50;28.30;89.00
47805;DHT22;33568;45.286;9.900;2023-07-20T03:58:18;28.20;88.90
47805;DHT22;33568;45.286;9.900;2023-07-20T04:00:49;28.20;88.80
47805;DHT22;33568;45.286;9.900;2023-07-20T04:03:20;28.20;88.60
47805;DHT22;33568;45.286;9.900;2023-07-20T04:05:49;28.20;88.60
47805;DHT22;33568;45.286;9.900;2023-07-20T04:08:15;28.00;88.70
47805;DHT22;33568;45.286;9.900;2023-07-20T04:10:45;27.90;89.10
47805;DHT22;33568;45.286;9.900;2023-07-20T04:13:12;27.80;89.10
47805;DHT22;33568;45.286;9.900;2023-07-20T04:15:38;27.60;89.00
47805;DHT22;33568;45.286;9.900;2023-07-20T04:18:05;27.50;90.00
47805;DHT22;33568;45.286;9.900;2023-07-20T04:20:32;27.30;89.70
47805;DHT22;33568;45.286;9.900;2023-07-20T04:22:59;27.20;90.00
47805;DHT22;33568;45.286;9.900;2023-07-20T04:25:25;27.20;90.00
47805;DHT22;33568;45.286;9.900;2023-07-20T04:27:52;27.20;90.00
47805;DHT22;33568;45.286;9.900;2023-07-20T04:30:22;27.20;90.00
47805;DHT22;33568;45.286;9.900;2023-07-20T04:32:49;27.10;90.10
47805;DHT22;33568;45.286;9.900;2023-07-20T04:35:44;27.10;90.20
47805;DHT22;33568;45.286;9.900;2023-07-20T04:38:07;27.20;90.20
47805;DHT22;33568;45.286;9.900;2023-07-20T04:40:34;27.40;90.00
47805;DHT22;33568;45.286;9.900;2023-07-20T04:43:00;27.30;89.30
47805;DHT22;33568;45.286;9.900;2023-07-20T04:45:27;27.20;89.40
47805;DHT22;33568;45.286;9.900;2023-07-20T04:47:53;27.20;89.70
47805;DHT22;33568;45.286;9.900;2023-07-20T04:50:20;27.30;89.60
47805;DHT22;33568;45.286;9.900;2023-07-20T04:52:47;27.30;89.40
47805;DHT22;33568;45.286;9.900;2023-07-20T04:55:18;27.30;89.20
47805;DHT22;33568;45.286;9.900;2023-07-20T04:57:45;27.30;89.40
47805;DHT22;33568;45.286;9.900;2023-07-20T05:00:12;27.20;89.40
47805;DHT22;33568;45.286;9.900;2023-07-20T05:02:40;27.00;89.60
47805;DHT22;33568;45.286;9.900;2023-07-20T05:05:07;27.00;90.00
47805;DHT22;33568;45.286;9.900;2023-07-20T05:07:34;27.10;90.10
47805;DHT22;33568;45.286;9.900;2023-07-20T05:10:01;27.10;90.20
47805;DHT22;33568;45.286;9.900;2023-07-20T05:12:29;27.20;90.20
47805;DHT22;33568;45.286;9.900;2023-07-20T05:14:58;27.10;90.00
47805;DHT22;33568;45.286;9.900;2023-07-20T05:17:25;27.00;90.20
47805;DHT22;33568;45.286;9.900;2023-07-20T05:19:52;27.10;90.30
47805;DHT22;33568;45.286;9.900;2023-07-20T05:22:19;27.20;90.30
47805;DHT22;33568;45.286;9.900;2023-07-20T05:24:45;27.20;90.30
47805;DHT22;33568;45.286;9.900;2023-07-20T05:27:12;27.20;90.30
47805;DHT22;33568;45.286;9.900;2023-07-20T05:29:44;27.50;90.10
47805;DHT22;33568;45.286;9.900;2023-07-20T05:32:11;27.50;90.00
47805;DHT22;33568;45.286;9.900;2023-07-20T05:34:37;27.50;90.20
47805;DHT22;33568;45.286;9.900;2023-07-20T05:37:04;27.70;90.20
47805;DHT22;33568;45.286;9.900;2023-07-20T05:39:32;27.90;89.80
47805;DHT22;33568;45.286;9.900;2023-07-20T05:41:59;27.90;89.40
47805;DHT22;33568;45.286;9.900;2023-07-20T05:44:25;27.90;89.40
47805;DHT22;33568;45.286;9.900;2023-07-20T05:46:52;27.90;89.40
47805;DHT22;33568;45.286;9.900;2023-07-20T05:49:18;27.90;89.70
47805;DHT22;33568;45.286;9.900;2023-07-20T05:51:45;27.90;89.90
47805;DHT22;33568;45.286;9.900;2023-07-20T05:54:13;28.10;89.30
47805;DHT22;33568;45.286;9.900;2023-07-20T05:56:39;28.40;88.40
47805;DHT22;33568;45.286;9.900;2023-07-20T05:59:05;28.30;86.80
47805;DHT22;33568;45.286;9.900;2023-07-20T06:01:32;28.10;86.50
47805;DHT22;33568;45.286;9.900;2023-07-20T06:03:59;28.20;86.40
47805;DHT22;33568;45.286;9.900;2023-07-20T06:06:25;28.40;85.90
47805;DHT22;33568;45.286;9.900;2023-07-20T06:08:52;28.50;85.60
47805;DHT22;33568;45.286;9.900;2023-07-20T06:11:18;28.70;85.50
47805;DHT22;33568;45.286;9.900;2023-07-20T06:13:45;28.90;85.10
47805;DHT22;33568;45.286;9.900;2023-07-20T06:16:11;29.10;84.80
47805;DHT22;33568;45.286;9.900;2023-07-20T06:18:38;29.10;84.80
47805;DHT22;33568;45.286;9.900;2023-07-20T06:21:04;29.20;84.50
47805;DHT22;33568;45.286;9.900;2023-07-20T06:23:31;29.40;83.90
47805;DHT22;33568;45.286;9.900;2023-07-20T06:25:57;29.70;83.40
47805;DHT22;33568;45.286;9.900;2023-07-20T06:28:24;29.70;82.60
47805;DHT22;33568;45.286;9.900;2023-07-20T06:30:50;29.80;82.40
47805;DHT22;33568;45.286;9.900;2023-07-20T06:33:17;29.80;82.10
47805;DHT22;33568;45.286;9.900;2023-07-20T06:35:44;29.70;82.10
47805;DHT22;33568;45.286;9.900;2023-07-20T06:38:10;29.70;82.40
47805;DHT22;33568;45.286;9.900;2023-07-20T06:40:37;29.50;82.80
47805;DHT22;33568;45.286;9.900;2023-07-20T06:43:03;29.50;83.30
47805;DHT22;33568;45.286;9.900;2023-07-20T06:45:30;29.50;83.60
47805;DHT22;33568;45.286;9.900;2023-07-20T06:47:56;29.60;83.30
47805;DHT22;33568;45.286;9.900;2023-07-20T06:50:23;29.70;82.70
47805;DHT22;33568;45.286;9.900;2023-07-20T06:52:49;29.70;82.70
47805;DHT22;33568;45.286;9.900;2023-07-20T06:55:16;29.70;82.80
47805;DHT22;33568;45.286;9.900;2023-07-20T06:57:42;29.90;82.90
47805;DHT22;33568;45.286;9.900;2023-07-20T07:00:09;30.10;82.30
47805;DHT22;33568;45.286;9.900;2023-07-20T07:02:36;30.10;82.10
47805;DHT22;33568;45.286;9.900;2023-07-20T07:05:03;30.00;82.10
47805;DHT22;33568;45.286;9.900;2023-07-20T07:07:31;29.90;82.50
47805;DHT22;33568;45.286;9.900;2023-07-20T07:09:57;30.00;82.40
47805;DHT22;33568;45.286;9.900;2023-07-20T07:12:24;29.90;82.00
47805;DHT22;33568;45.286;9.900;2023-07-20T07:14:50;29.60;82.40
47805;DHT22;33568;45.286;9.900;2023-07-20T07:17:17;29.60;82.70
47805;DHT22;33568;45.286;9.900;2023-07-20T07:19:43;29.70;83.00
47805;DHT22;33568;45.286;9.900;2023-07-20T07:22:10;30.00;82.70
47805;DHT22;33568;45.286;9.900;2023-07-20T07:24:37;30.30;81.70
47805;DHT22;33568;45.286;9.900;2023-07-20T07:27:04;30.60;80.70
47805;DHT22;33568;45.286;9.900;2023-07-20T07:29:31;30.80;79.50
47805;DHT22;33568;45.286;9.900;2023-07-20T07:31:57;31.10;78.60
47805;DHT22;33568;45.286;9.900;2023-07-20T07:34:24;31.10;78.30
47805;DHT22;33568;45.286;9.900;2023-07-20T07:36:51;31.00;78.30
47805;DHT22;33568;45.286;9.900;2023-07-20T07:39:17;31.20;78.00
47805;DHT22;33568;45.286;9.900;2023-07-20T07:41:44;31.40;77.50
47805;DHT22;33568;45.286;9.900;2023-07-20T07:44:11;31.40;77.30
47805;DHT22;33568;45.286;9.900;2023-07-20T07:46:37;31.60;77.30
47805;DHT22;33568;45.286;9.900;2023-07-20T07:49:04;31.60;77.30
47805;DHT22;33568;45.286;9.900;2023-07-20T07:51:30;31.60;77.50
47805;DHT22;33568;45.286;9.900;2023-07-20T07:53:57;31.60;77.50
47805;DHT22;33568;45.286;9.900;2023-07-20T07:56:24;31.70;77.60
47805;DHT22;33568;45.286;9.900;2023-07-20T07:58:50;31.80;77.30
47805;DHT22;33568;45.286;9.900;2023-07-20T08:01:20;32.00;76.80
47805;DHT22;33568;45.286;9.900;2023-07-20T08:03:46;32.30;76.40
47805;DHT22;33568;45.286;9.900;2023-07-20T08:06:14;32.50;75.80
47805;DHT22;33568;45.286;9.900;2023-07-20T08:08:41;32.60;75.20
47805;DHT22;33568;45.286;9.900;2023-07-20T08:11:08;32.70;75.40
47805;DHT22;33568;45.286;9.900;2023-07-20T08:13:38;32.80;74.90
47805;DHT22;33568;45.286;9.900;2023-07-20T08:16:04;33.00;74.10
47805;DHT22;33568;45.286;9.900;2023-07-20T08:18:31;33.00;74.40
47805;DHT22;33568;45.286;9.900;2023-07-20T08:20:57;33.10;74.20
47805;DHT22;33568;45.286;9.900;2023-07-20T08:23:24;33.20;73.70
47805;DHT22;33568;45.286;9.900;2023-07-20T08:25:50;33.50;73.30
47805;DHT22;33568;45.286;9.900;2023-07-20T08:28:17;33.70;72.70
47805;DHT22;33568;45.286;9.900;2023-07-20T08:30:45;33.90;72.20
47805;DHT22;33568;45.286;9.900;2023-07-20T08:33:16;34.10;71.90
47805;DHT22;33568;45.286;9.900;2023-07-20T08:35:45;33.90;71.70
47805;DHT22;33568;45.286;9.900;2023-07-20T08:38:12;33.80;72.10
47805;DHT22;33568;45.286;9.900;2023-07-20T08:40:44;33.70;72.30
47805;DHT22;33568;45.286;9.900;2023-07-20T08:43:12;33.70;72.20
47805;DHT22;33568;45.286;9.900;2023-07-20T08:45:40;33.90;72.00
47805;DHT22;33568;45.286;9.900;2023-07-20T08:48:08;34.00;71.30
47805;DHT22;33568;45.286;9.900;2023-07-20T08:50:35;33.90;71.40
47805;DHT22;33568;45.286;9.900;2023-07-20T08:53:02;34.00;71.40
47805;DHT22;33568;45.286;9.900;2023-07-20T08:55:29;34.10;71.10
47805;DHT22;33568;45.286;9.900;2023-07-20T08:57:58;34.10;70.50
47805;DHT22;33568;45.286;9.900;2023-07-20T09:00:25;34.00;70.60
47805;DHT22;33568;45.286;9.900;2023-07-20T09:02:54;34.00;70.50
47805;DHT22;33568;45.286;9.900;2023-07-20T09:05:22;33.80;70.40
47805;DHT22;33568;45.286;9.900;2023-07-20T09:07:49;33.50;71.00
47805;DHT22;33568;45.286;9.900;2023-07-20T09:10:15;33.60;71.30
47805;DHT22;33568;45.286;9.900;2023-07-20T09:12:43;34.00;70.80
47805;DHT22;33568;45.286;9.900;2023-07-20T09:15:11;34.30;70.30
47805;DHT22;33568;45.286;9.900;2023-07-20T09:17:38;34.40;70.00
47805;DHT22;33568;45.286;9.900;2023-07-20T09:20:06;34.40;69.90
47805;DHT22;33568;45.286;9.900;2023-07-20T09:22:35;34.60;69.30
47805;DHT22;33568;45.286;9.900;2023-07-20T09:25:01;34.80;69.00
47805;DHT22;33568;45.286;9.900;2023-07-20T09:27:42;35.00;68.00
47805;DHT22;33568;45.286;9.900;2023-07-20T09:30:09;34.90;67.50
47805;DHT22;33568;45.286;9.900;2023-07-20T09:32:47;34.90;67.50
47805;DHT22;33568;45.286;9.900;2023-07-20T09:35:21;34.90;67.70
47805;DHT22;33568;45.286;9.900;2023-07-20T09:37:59;35.00;66.00
47805;DHT22;33568;45.286;9.900;2023-07-20T09:40:26;34.90;65.20
47805;DHT22;33568;45.286;9.900;2023-07-20T09:42:54;34.70;66.20
47805;DHT22;33568;45.286;9.900;2023-07-20T09:45:33;34.50;67.20
47805;DHT22;33568;45.286;9.900;2023-07-20T09:48:05;34.60;67.60
47805;DHT22;33568;45.286;9.900;2023-07-20T09:50:33;34.80;66.90
47805;DHT22;33568;45.286;9.900;2023-07-20T09:53:01;34.90;67.00
47805;DHT22;33568;45.286;9.900;2023-07-20T09:55:30;34.90;66.90
47805;DHT22;33568;45.286;9.900;2023-07-20T09:57:58;35.20;67.20
47805;DHT22;33568;45.286;9.900;2023-07-20T10:00:25;35.30;67.30
47805;DHT22;33568;45.286;9.900;2023-07-20T10:02:52;35.40;66.90
47805;DHT22;33568;45.286;9.900;2023-07-20T10:05:20;35.50;66.50
47805;DHT22;33568;45.286;9.900;2023-07-20T10:07:49;35.50;66.00
47805;DHT22;33568;45.286;9.900;2023-07-20T10:10:18;35.50;66.50
47805;DHT22;33568;45.286;9.900;2023-07-20T10:12:47;35.60;66.40
47805;DHT22;33568;45.286;9.900;2023-07-20T10:15:33;35.80;66.10
47805;DHT22;33568;45.286;9.900;2023-07-20T10:18:17;35.80;65.70
47805;DHT22;33568;45.286;9.900;2023-07-20T10:20:46;35.80;65.60
47805;DHT22;33568;45.286;9.900;2023-07-20T10:23:13;36.00;65.80
47805;DHT22;33568;45.286;9.900;2023-07-20T10:25:40;36.00;66.20
47805;DHT22;33568;45.286;9.900;2023-07-20T10:28:10;36.20;66.30
47805;DHT22;33568;45.286;9.900;2023-07-20T10:30:37;36.40;66.50
47805;DHT22;33568;45.286;9.900;2023-07-20T10:33:05;36.50;65.40
47805;DHT22;33568;45.286;9.900;2023-07-20T10:35:51;36.60;64.60
47805;DHT22;33568;45.286;9.900;2023-07-20T10:38:18;36.50;64.30
47805;DHT22;33568;45.286;9.900;2023-07-20T10:40:54;36.50;65.50
47805;DHT22;33568;45.286;9.900;2023-07-20T10:43:21;36.70;63.90
47805;DHT22;33568;45.286;9.900;2023-07-20T10:45:50;36.70;64.80
47805;DHT22;33568;45.286;9.900;2023-07-20T10:48:24;36.70;64.00
47805;DHT22;33568;45.286;9.900;2023-07-20T10:51:12;36.60;64.50
47805;DHT22;33568;45.286;9.900;2023-07-20T10:53:41;36.70;64.00
47805;DHT22;33568;45.286;9.900;2023-07-20T10:56:12;36.80;64.40
47805;DHT22;33568;45.286;9.900;2023-07-20T10:58:40;36.90;63.60
47805;DHT22;33568;45.286;9.900;2023-07-20T11:01:08;37.00;63.20
47805;DHT22;33568;45.286;9.900;2023-07-20T11:03:39;37.10;63.10
47805;DHT22;33568;45.286;9.900;2023-07-20T11:08:56;37.30;63.30
47805;DHT22;33568;45.286;9.900;2023-07-20T11:11:27;37.40;63.40
47805;DHT22;33568;45.286;9.900;2023-07-20T11:14:01;37.40;64.00
47805;DHT22;33568;45.286;9.900;2023-07-20T11:16:38;37.50;63.90
47805;DHT22;33568;45.286;9.900;2023-07-20T11:19:06;37.70;63.50
47805;DHT22;33568;45.286;9.900;2023-07-20T11:21:41;37.70;63.30
47805;DHT22;33568;45.286;9.900;2023-07-20T11:24:08;37.80;62.30
47805;DHT22;33568;45.286;9.900;2023-07-20T11:26:54;37.80;62.70
47805;DHT22;33568;45.286;9.900;2023-07-20T11:29:22;37.80;61.30
47805;DHT22;33568;45.286;9.900;2023-07-20T11:31:50;37.70;62.40
47805;DHT22;33568;45.286;9.900;2023-07-20T11:34:18;37.90;62.10
47805;DHT22;33568;45.286;9.900;2023-07-20T11:36:50;37.90;61.10
47805;DHT22;33568;45.286;9.900;2023-07-20T11:39:18;38.10;60.50
47805;DHT22;33568;45.286;9.900;2023-07-20T11:41:52;38.00;59.90
47805;DHT22;33568;45.286;9.900;2023-07-20T11:44:23;37.80;60.60
47805;DHT22;33568;45.286;9.900;2023-07-20T11:47:08;37.70;59.10
47805;DHT22;33568;45.286;9.900;2023-07-20T11:49:36;37.50;58.40
47805;DHT22;33568;45.286;9.900;2023-07-20T11:52:06;37.50;59.70
47805;DHT22;33568;45.286;9.900;2023-07-20T11:54:39;37.40;59.90
47805;DHT22;33568;45.286;9.900;2023-07-20T11:57:06;37.40;59.70
47805;DHT22;33568;45.286;9.900;2023-07-20T11:59:33;37.40;59.60
47805;DHT22;33568;45.286;9.900;2023-07-20T12:02:03;37.30;60.50
47805;DHT22;33568;45.286;9.900;2023-07-20T12:04:31;37.30;61.60
47805;DHT22;33568;45.286;9.900;2023-07-20T12:06:58;37.30;61.00
47805;DHT22;33568;45.286;9.900;2023-07-20T12:09:25;37.40;60.70
47805;DHT22;33568;45.286;9.900;2023-07-20T12:11:51;37.50;61.20
47805;DHT22;33568;45.286;9.900;2023-07-20T12:14:18;37.50;61.30
47805;DHT22;33568;45.286;9.900;2023-07-20T12:16:52;37.60;61.10
47805;DHT22;33568;45.286;9.900;2023-07-20T12:19:19;37.60;60.70
47805;DHT22;33568;45.286;9.900;2023-07-20T12:21:46;37.70;61.20
47805;DHT22;33568;45.286;9.900;2023-07-20T12:24:12;37.90;61.00
47805;DHT22;33568;45.286;9.900;2023-07-20T12:26:39;38.10;60.70
47805;DHT22;33568;45.286;9.900;2023-07-20T12:29:05;38.30;60.80
47805;DHT22;33568;45.286;9.900;2023-07-20T12:31:36;38.30;60.00
47805;DHT22;33568;45.286;9.900;2023-07-20T12:34:02;38.40;59.40
47805;DHT22;33568;45.286;9.900;2023-07-20T12:36:29;38.40;59.20
47805;DHT22;33568;45.286;9.900;2023-07-20T12:38:57;38.40;59.20
47805;DHT22;33568;45.286;9.900;2023-07-20T12:41:24;38.40;58.80
47805;DHT22;33568;45.286;9.900;2023-07-20T12:43:51;38.30;58.60
47805;DHT22;33568;45.286;9.900;2023-07-20T12:46:17;38.30;58.70
47805;DHT22;33568;45.286;9.900;2023-07-20T12:48:44;38.20;58.80
47805;DHT22;33568;45.286;9.900;2023-07-20T12:51:11;38.30;58.90
47805;DHT22;33568;45.286;9.900;2023-07-20T12:53:38;38.40;57.70
47805;DHT22;33568;45.286;9.900;2023-07-20T12:56:05;38.40;57.50
47805;DHT22;33568;45.286;9.900;2023-07-20T12:58:32;38.40;57.80
47805;DHT22;33568;45.286;9.900;2023-07-20T13:00:58;38.50;57.80
47805;DHT22;33568;45.286;9.900;2023-07-20T13:03:25;38.50;58.00
47805;DHT22;33568;45.286;9.900;2023-07-20T13:05:51;38.40;57.90
47805;DHT22;33568;45.286;9.900;2023-07-20T13:08:18;38.50;57.60
47805;DHT22;33568;45.286;9.900;2023-07-20T13:10:45;38.60;57.90
47805;DHT22;33568;45.286;9.900;2023-07-20T13:13:12;38.60;58.30
47805;DHT22;33568;45.286;9.900;2023-07-20T13:15:43;38.60;58.50
47805;DHT22;33568;45.286;9.900;2023-07-20T13:18:10;38.40;57.40
47805;DHT22;33568;45.286;9.900;2023-07-20T13:20:37;38.40;57.60
47805;DHT22;33568;45.286;9.900;2023-07-20T13:23:04;38.40;58.30
47805;DHT22;33568;45.286;9.900;2023-07-20T13:25:31;38.50;58.50
47805;DHT22;33568;45.286;9.900;2023-07-20T13:27:58;38.40;58.30
47805;DHT22;33568;45.286;9.900;2023-07-20T13:30:24;38.40;58.50
47805;DHT22;33568;45.286;9.900;2023-07-20T13:32:51;38.30;58.80
47805;DHT22;33568;45.286;9.900;2023-07-20T13:35:17;38.20;58.60
47805;DHT22;33568;45.286;9.900;2023-07-20T13:37:44;38.00;58.50
47805;DHT22;33568;45.286;9.900;2023-07-20T13:40:10;37.90;57.70
47805;DHT22;33568;45.286;9.900;2023-07-20T13:42:39;37.70;58.00
47805;DHT22;33568;45.286;9.900;2023-07-20T13:45:09;37.60;58.20
47805;DHT22;33568;45.286;9.900;2023-07-20T13:47:36;37.70;58.60
47805;DHT22;33568;45.286;9.900;2023-07-20T13:50:02;37.70;58.30
47805;DHT22;33568;45.286;9.900;2023-07-20T13:52:29;37.70;58.20
47805;DHT22;33568;45.286;9.900;2023-07-20T13:54:56;37.80;58.20
47805;DHT22;33568;45.286;9.900;2023-07-20T13:57:22;37.80;58.00
47805;DHT22;33568;45.286;9.900;2023-07-20T13:59:49;37.80;57.70
47805;DHT22;33568;45.286;9.900;2023-07-20T14:02:15;37.70;58.00
47805;DHT22;33568;45.286;9.900;2023-07-20T14:04:42;37.80;58.30
47805;DHT22;33568;45.286;9.900;2023-07-20T14:07:09;37.90;58.10
47805;DHT22;33568;45.286;9.900;2023-07-20T14:09:35;38.00;58.10
47805;DHT22;33568;45.286;9.900;2023-07-20T14:12:02;38.00;58.10
47805;DHT22;33568;45.286;9.900;2023-07-20T14:14:28;37.70;57.90
47805;DHT22;33568;45.286;9.900;2023-07-20T14:16:55;37.70;57.80
47805;DHT22;33568;45.286;9.900;2023-07-20T14:19:22;37.60;57.50
47805;DHT22;33568;45.286;9.900;2023-07-20T14:21:49;37.70;57.60
47805;DHT22;33568;45.286;9.900;2023-07-20T14:24:15;37.70;57.60
47805;DHT22;33568;45.286;9.900;2023-07-20T14:26:42;37.70;57.80
47805;DHT22;33568;45.286;9.900;2023-07-20T14:29:08;37.80;57.70
47805;DHT22;33568;45.286;9.900;2023-07-20T14:31:35;37.80;57.50
47805;DHT22;33568;45.286;9.900;2023-07-20T14:34:01;37.90;57.40
47805;DHT22;33568;45.286;9.900;2023-07-20T14:36:28;37.90;57.40
47805;DHT22;33568;45.286;9.900;2023-07-20T14:38:54;37.90;56.80
47805;DHT22;33568;45.286;9.900;2023-07-20T14:41:20;37.80;56.20
47805;DHT22;33568;45.286;9.900;2023-07-20T14:43:47;37.60;56.00
47805;DHT22;33568;45.286;9.900;2023-07-20T14:46:14;37.60;56.00
47805;DHT22;33568;45.286;9.900;2023-07-20T14:48:41;37.70;56.10
47805;DHT22;33568;45.286;9.900;2023-07-20T14:51:07;37.80;55.90
47805;DHT22;33568;45.286;9.900;2023-07-20T14:53:34;37.90;56.10
47805;DHT22;33568;45.286;9.900;2023-07-20T14:56:01;37.90;56.10
47805;DHT22;33568;45.286;9.900;2023-07-20T14:58:27;37.90;55.50
47805;DHT22;33568;45.286;9.900;2023-07-20T15:00:54;37.90;55.40
47805;DHT22;33568;45.286;9.900;2023-07-20T15:03:21;37.90;55.30
47805;DHT22;33568;45.286;9.900;2023-07-20T15:05:47;37.90;54.60
47805;DHT22;33568;45.286;9.900;2023-07-20T15:08:14;38.00;54.00
47805;DHT22;33568;45.286;9.900;2023-07-20T15:10:40;38.10;53.60
47805;DHT22;33568;45.286;9.900;2023-07-20T15:13:07;38.20;53.40
47805;DHT22;33568;45.286;9.900;2023-07-20T15:15:33;38.10;53.20
47805;DHT22;33568;45.286;9.900;2023-07-20T15:18:00;38.10;53.40
47805;DHT22;33568;45.286;9.900;2023-07-20T15:20:26;38.10;53.40
47805;DHT22;33568;45.286;9.900;2023-07-20T15:22:53;38.20;53.50
47805;DHT22;33568;45.286;9.900;2023-07-20T15:25:20;38.30;54.00
47805;DHT22;33568;45.286;9.900;2023-07-20T15:27:46;38.20;54.40
47805;DHT22;33568;45.286;9.900;2023-07-20T15:30:13;38.30;54.80
47805;DHT22;33568;45.286;9.900;2023-07-20T15:32:40;38.40;55.00
47805;DHT22;33568;45.286;9.900;2023-07-20T15:35:08;38.50;54.90
47805;DHT22;33568;45.286;9.900;2023-07-20T15:37:34;38.40;54.60
47805;DHT22;33568;45.286;9.900;2023-07-20T15:40:03;38.30;54.60
47805;DHT22;33568;45.286;9.900;2023-07-20T15:42:32;38.20;55.00
47805;DHT22;33568;45.286;9.900;2023-07-20T15:44:59;38.10;55.50
47805;DHT22;33568;45.286;9.900;2023-07-20T15:47:26;38.10;55.70